createdAt,value
2018-07-08T00:01:49.507Z,101907.48
2018-07-08T00:04:21.160Z,101903.54
2018-07-08T00:06:56.785Z,101902.69
2018-07-08T00:09:27.759Z,101906.55
2018-07-08T00:12:01.308Z,101907.63
2018-07-08T00:14:32.847Z,101906.93
2018-07-08T00:17:07.484Z,101908.72
2018-07-08T00:19:38.057Z,101911.47
2018-07-08T00:22:07.893Z,101918.67
2018-07-08T00:24:37.436Z,101917.79
2018-07-08T00:27:07.212Z,101930.31
2018-07-08T00:29:38.528Z,101929.03
2018-07-08T00:32:07.959Z,101924.28
2018-07-08T00:34:38.036Z,101925.17
2018-07-08T00:37:07.517Z,101923.84
2018-07-08T00:42:14.694Z,101924.38
2018-07-08T00:45:48.228Z,101927.96
2018-07-08T00:48:20.412Z,101919.25
2018-07-08T00:50:50.762Z,101930.30
2018-07-08T00:53:22.906Z,101922.80
2018-07-08T00:55:52.887Z,101924.70
2018-07-08T00:58:22.076Z,101923.81
2018-07-08T01:00:52.895Z,101923.50
2018-07-08T01:03:23.662Z,101921.77
2018-07-08T01:05:53.476Z,101921.36
2018-07-08T01:08:22.887Z,101920.51
2018-07-08T01:10:52.491Z,101920.42
2018-07-08T01:13:22.573Z,101918.17
2018-07-08T01:15:52.306Z,101917.23
2018-07-08T01:18:22.152Z,101917.16
2018-07-08T01:20:52.660Z,101921.59
2018-07-08T01:23:22.213Z,101919.58
2018-07-08T01:26:02.622Z,101920.83
2018-07-08T01:28:32.041Z,101918.13
2018-07-08T01:31:01.427Z,101918.45
2018-07-08T01:33:30.730Z,101916.71
2018-07-08T01:36:00.478Z,101926.12
2018-07-08T01:38:34.093Z,101918.25
2018-07-08T01:41:05.286Z,101929.34
2018-07-08T01:43:37.028Z,101917.84
2018-07-08T01:46:14.132Z,101925.83
2018-07-08T01:48:46.088Z,101922.23
2018-07-08T01:51:15.870Z,101916.84
2018-07-08T01:53:48.182Z,101924.78
2018-07-08T01:56:18.187Z,101930.07
2018-07-08T01:58:53.326Z,101928.30
2018-07-08T02:01:22.715Z,101930.96
2018-07-08T02:06:33.186Z,101922.92
2018-07-08T02:09:03.060Z,101928.26
2018-07-08T02:11:38.875Z,101930.07
2018-07-08T02:14:10.576Z,101931.97
2018-07-08T02:16:41.138Z,101931.16
2018-07-08T02:19:17.287Z,101933.41
2018-07-08T02:21:47.778Z,101929.42
2018-07-08T02:24:17.384Z,101935.16
2018-07-08T02:26:47.026Z,101929.94
2018-07-08T02:29:22.540Z,101934.86
2018-07-08T02:31:51.839Z,101934.53
2018-07-08T02:34:21.106Z,101803.98
2018-07-08T02:36:52.827Z,101935.56
2018-07-08T02:39:24.581Z,101935.16
2018-07-08T02:41:54.218Z,101936.89
2018-07-08T02:44:25.454Z,101935.09
2018-07-08T02:46:55.568Z,101938.67
2018-07-08T02:54:42.515Z,101931.02
2018-07-08T02:57:12.887Z,101927.06
2018-07-08T02:59:42.648Z,101921.73
2018-07-08T03:02:12.126Z,101920.85
2018-07-08T03:04:41.327Z,101923.52
2018-07-08T03:07:10.328Z,101926.21
2018-07-08T03:09:39.610Z,101909.47
2018-07-08T03:12:08.901Z,101927.06
2018-07-08T03:14:38.439Z,101923.52
2018-07-08T03:17:08.206Z,101936.78
2018-07-08T03:19:39.005Z,101930.61
2018-07-08T03:22:09.650Z,101932.02
2018-07-08T03:24:39.021Z,101930.17
2018-07-08T03:27:11.206Z,101951.43
2018-07-08T03:29:40.679Z,101932.72
2018-07-08T03:32:11.399Z,101933.16
2018-07-08T03:34:40.722Z,101934.53
2018-07-08T03:37:10.117Z,101934.97
2018-07-08T03:39:44.954Z,101935.78
2018-07-08T03:42:17.733Z,101937.52
2018-07-08T03:44:50.467Z,101938.45
2018-07-08T03:47:23.802Z,101935.90
2018-07-08T03:49:54.037Z,101939.89
2018-07-08T03:52:27.416Z,101939.86
2018-07-08T03:54:57.979Z,101933.20
2018-07-08T03:57:27.342Z,101934.98
2018-07-08T04:00:01.026Z,101930.09
2018-07-08T04:02:35.078Z,101932.34
2018-07-08T04:05:05.153Z,101926.98
2018-07-08T04:07:35.732Z,101928.65
2018-07-08T04:10:07.204Z,101925.02
2018-07-08T04:12:36.811Z,101925.47
2018-07-08T04:15:07.769Z,101929.42
2018-07-08T04:17:37.047Z,101930.27
2018-07-08T04:20:06.613Z,101934.22
2018-07-08T04:22:36.198Z,101933.26
2018-07-08T04:25:06.352Z,101935.48
2018-07-08T04:27:37.355Z,101939.91
2018-07-08T04:30:11.814Z,101947.39
2018-07-08T04:32:43.743Z,101745.47
2018-07-08T04:35:14.483Z,101946.73
2018-07-08T04:37:47.146Z,101948.87
2018-07-08T04:40:18.342Z,101947.09
2018-07-08T04:42:48.866Z,101946.56
2018-07-08T04:45:20.355Z,101904.77
2018-07-08T04:47:51.926Z,101948.14
2018-07-08T04:50:22.023Z,101951.59
2018-07-08T04:52:52.157Z,101955.06
2018-07-08T04:55:22.934Z,101948.74
2018-07-08T04:57:55.303Z,101952.25
2018-07-08T05:00:25.269Z,101952.12
2018-07-08T05:02:55.294Z,101945.81
2018-07-08T05:05:25.802Z,101943.89
2018-07-08T05:07:58.704Z,101954.45
2018-07-08T05:10:31.746Z,101951.64
2018-07-08T05:13:03.368Z,101949.77
2018-07-08T05:15:39.858Z,101951.48
2018-07-08T05:18:11.867Z,101953.17
2018-07-08T05:20:47.745Z,101953.13
2018-07-08T05:23:17.171Z,101942.31
2018-07-08T05:25:46.826Z,101945.36
2018-07-08T05:28:16.996Z,101945.26
2018-07-08T05:30:47.759Z,101943.38
2018-07-08T05:33:20.084Z,101942.81
2018-07-08T05:35:49.480Z,101939.53
2018-07-08T05:38:19.077Z,101938.98
2018-07-08T05:40:51.300Z,101939.26
2018-07-08T05:43:35.797Z,101943.09
2018-07-08T05:46:06.328Z,101943.81
2018-07-08T05:48:43.732Z,101950.31
2018-07-08T05:51:14.686Z,101941.73
2018-07-08T05:53:44.805Z,101942.44
2018-07-08T05:56:14.469Z,101945.85
2018-07-08T05:58:44.043Z,101948.39
2018-07-08T06:01:13.449Z,101950.94
2018-07-08T06:03:43.797Z,101952.65
2018-07-08T06:06:13.442Z,101952.53
2018-07-08T06:08:42.627Z,101954.16
2018-07-08T06:11:11.654Z,101950.04
2018-07-08T06:13:41.307Z,101949.02
2018-07-08T06:16:11.803Z,101956.46
2018-07-08T06:18:43.105Z,101956.28
2018-07-08T06:21:13.689Z,101951.13
2018-07-08T06:23:44.010Z,101951.30
2018-07-08T06:26:14.183Z,101949.25
2018-07-08T06:28:43.341Z,101948.22
2018-07-08T06:31:12.860Z,101949.80
2018-07-08T06:33:42.054Z,101946.14
2018-07-08T06:36:11.391Z,101946.39
2018-07-08T06:38:40.703Z,101943.08
2018-07-08T06:41:10.264Z,101943.70
2018-07-08T06:43:40.346Z,101936.41
2018-07-08T06:46:13.694Z,101936.34
2018-07-08T06:48:46.359Z,101944.58
2018-07-08T06:51:27.197Z,101934.87
2018-07-08T06:53:59.166Z,101936.58
2018-07-08T06:56:32.001Z,101885.12
2018-07-08T06:59:02.290Z,101817.30
2018-07-08T07:01:31.521Z,101933.81
2018-07-08T07:04:01.165Z,101926.94
2018-07-08T07:06:30.682Z,101930.34
2018-07-08T07:09:00.761Z,101932.76
2018-07-08T07:11:30.090Z,101941.44
2018-07-08T07:14:00.720Z,101935.74
2018-07-08T07:16:30.624Z,101937.66
2018-07-08T07:19:01.219Z,101942.41
2018-07-08T07:21:31.006Z,101939.92
2018-07-08T07:24:05.539Z,101941.27
2018-07-08T07:26:36.689Z,101941.56
2018-07-08T07:29:06.635Z,101940.03
2018-07-08T07:31:41.535Z,101934.58
2018-07-08T07:34:11.146Z,101940.39
2018-07-08T07:36:40.729Z,101939.41
2018-07-08T07:39:11.011Z,101929.92
2018-07-08T07:41:40.296Z,101928.89
2018-07-08T07:44:10.581Z,101926.06
2018-07-08T07:46:45.165Z,101931.65
2018-07-08T07:49:17.317Z,101926.48
2018-07-08T07:51:46.978Z,101933.06
2018-07-08T07:54:19.895Z,101909.02
2018-07-08T07:59:35.115Z,101930.45
2018-07-08T08:02:05.876Z,101927.55
2018-07-08T08:04:36.160Z,101932.67
2018-07-08T08:07:05.883Z,101881.95
2018-07-08T08:09:35.303Z,101938.07
2018-07-08T08:12:04.901Z,101931.66
2018-07-08T08:14:34.697Z,101941.13
2018-07-08T08:17:03.900Z,101932.38
2018-07-08T08:19:33.135Z,101916.09
2018-07-08T08:22:02.857Z,101822.80
2018-07-08T08:24:33.357Z,101938.02
2018-07-08T08:27:03.752Z,101950.50
2018-07-08T08:29:33.136Z,101948.89
2018-07-08T08:32:07.568Z,101952.11
2018-07-08T08:34:56.404Z,101947.83
2018-07-08T08:37:27.948Z,101950.56
2018-07-08T08:39:57.282Z,101947.31
2018-07-08T08:42:26.890Z,101945.27
2018-07-08T08:44:57.874Z,101953.61
2018-07-08T08:47:28.804Z,101950.13
2018-07-08T08:49:58.526Z,101948.33
2018-07-08T08:52:31.967Z,101940.78
2018-07-08T08:55:02.004Z,101939.66
2018-07-08T09:02:53.566Z,101941.38
2018-07-08T09:05:26.297Z,101931.50
2018-07-08T09:07:58.220Z,101935.95
2018-07-08T09:10:28.799Z,101942.06
2018-07-08T09:13:10.953Z,101934.91
2018-07-08T09:15:40.765Z,101929.66
2018-07-08T09:21:09.442Z,101927.17
2018-07-08T09:23:42.863Z,101920.48
2018-07-08T09:26:13.046Z,101913.92
2018-07-08T09:28:42.473Z,101921.78
2018-07-08T09:31:12.578Z,101918.30
2018-07-08T09:33:41.869Z,101923.50
2018-07-08T09:36:12.177Z,101927.23
2018-07-08T09:38:41.827Z,101922.19
2018-07-08T09:41:11.305Z,101920.46
2018-07-08T09:43:40.834Z,101921.33
2018-07-08T09:46:10.368Z,101918.48
2018-07-08T09:48:39.905Z,101924.84
2018-07-08T09:51:10.108Z,101927.56
2018-07-08T09:53:39.411Z,101928.73
2018-07-08T09:56:08.679Z,101924.54
2018-07-08T09:58:44.668Z,101924.54
2018-07-08T10:01:23.933Z,101923.40
2018-07-08T10:03:53.639Z,101920.91
2018-07-08T10:06:23.062Z,101919.02
2018-07-08T10:08:53.104Z,101924.01
2018-07-08T10:11:24.720Z,101922.53
2018-07-08T10:13:57.183Z,101917.70
2018-07-08T10:16:29.695Z,101917.81
2018-07-08T10:19:00.126Z,101913.47
2018-07-08T10:21:31.006Z,101915.44
2018-07-08T10:24:01.527Z,101908.25
2018-07-08T10:26:33.162Z,101908.54
2018-07-08T10:29:03.345Z,101904.11
2018-07-08T10:31:43.672Z,101907.23
2018-07-08T10:34:19.417Z,101913.41
2018-07-08T10:36:55.063Z,101909.20
2018-07-08T10:39:25.925Z,101905.58
2018-07-08T10:41:57.604Z,101914.06
2018-07-08T10:44:28.099Z,101909.92
2018-07-08T10:47:00.131Z,101716.16
2018-07-08T10:49:32.041Z,101909.77
2018-07-08T10:52:02.239Z,101898.14
2018-07-08T10:54:32.052Z,101899.67
2018-07-08T10:57:04.281Z,101896.62
2018-07-08T10:59:36.424Z,101888.95
2018-07-08T11:02:07.257Z,101892.33
2018-07-08T11:04:37.081Z,101882.45
2018-07-08T11:07:13.381Z,101876.45
2018-07-08T11:09:45.335Z,101876.38
2018-07-08T11:12:16.111Z,101877.18
2018-07-08T11:15:00.697Z,101871.66
2018-07-08T11:17:40.998Z,101872.44
2018-07-08T11:20:21.772Z,101874.55
2018-07-08T11:22:54.160Z,101878.84
2018-07-08T11:25:28.940Z,101876.09
2018-07-08T11:28:07.983Z,101871.33
2018-07-08T11:30:42.410Z,101872.17
2018-07-08T11:33:30.045Z,101873.26
2018-07-08T11:36:02.801Z,101875.06
2018-07-08T11:43:52.518Z,101872.08
2018-07-08T11:46:30.589Z,101869.36
2018-07-08T11:49:08.783Z,101868.25
2018-07-08T11:51:42.374Z,101865.56
2018-07-08T11:54:22.195Z,101864.84
2018-07-08T11:59:40.305Z,101859.00
2018-07-08T12:04:52.930Z,101859.71
2018-07-08T12:07:25.079Z,101854.91
2018-07-08T12:10:01.107Z,101854.52
2018-07-08T12:12:36.122Z,101852.55
2018-07-08T12:15:09.384Z,101854.92
2018-07-08T12:17:43.495Z,101856.69
2018-07-08T12:20:18.587Z,101851.03
2018-07-08T12:23:00.069Z,101846.95
2018-07-08T12:25:38.321Z,101848.39
2018-07-08T12:28:09.549Z,101838.95
2018-07-08T12:30:39.420Z,101847.21
2018-07-08T12:33:15.442Z,101843.56
2018-07-08T12:35:54.343Z,101846.08
2018-07-08T12:38:30.728Z,101837.31
2018-07-08T12:41:01.034Z,101845.78
2018-07-08T12:43:41.327Z,101843.94
2018-07-08T12:46:15.500Z,101841.21
2018-07-08T12:48:48.270Z,101841.01
2018-07-08T12:51:22.338Z,101834.02
2018-07-08T12:54:00.887Z,101838.70
2018-07-08T12:56:30.743Z,101836.23
2018-07-08T12:59:06.845Z,101846.31
2018-07-08T13:01:48.962Z,101837.92
2018-07-08T13:04:22.949Z,101835.92
2018-07-08T13:06:54.318Z,101825.36
2018-07-08T13:09:25.122Z,101822.89
2018-07-08T13:11:57.808Z,101832.20
2018-07-08T13:14:28.147Z,101829.05
2018-07-08T13:17:01.638Z,101826.35
2018-07-08T13:19:32.158Z,101823.66
2018-07-08T13:22:04.512Z,101820.63
2018-07-08T13:24:37.951Z,101820.17
2018-07-08T13:27:10.415Z,101824.30
2018-07-08T13:29:40.982Z,101827.19
2018-07-08T13:32:12.825Z,101828.41
2018-07-08T13:34:48.979Z,101822.88
2018-07-08T13:42:51.597Z,101828.11
2018-07-08T13:45:24.181Z,101823.71
2018-07-08T13:47:58.542Z,101821.56
2018-07-08T13:50:28.922Z,101812.27
2018-07-08T13:52:59.553Z,101808.42
2018-07-08T13:55:29.063Z,101802.18
2018-07-08T14:00:32.734Z,101805.52
2018-07-08T14:03:04.805Z,101799.98
2018-07-08T14:05:40.017Z,101801.20
2018-07-08T14:08:14.909Z,101798.02
2018-07-08T14:10:44.432Z,101794.91
2018-07-08T14:13:13.962Z,101796.58
2018-07-08T14:18:26.695Z,101797.34
2018-07-08T14:20:56.182Z,101790.92
2018-07-08T14:23:26.988Z,101791.45
2018-07-08T14:25:57.571Z,101788.66
2018-07-08T14:28:27.359Z,101789.59
2018-07-08T14:30:56.972Z,101783.32
2018-07-08T14:33:31.421Z,101787.00
2018-07-08T14:36:04.283Z,101787.16
2018-07-08T14:38:36.552Z,101783.88
2018-07-08T14:41:05.786Z,101781.84
2018-07-08T14:43:35.223Z,101777.51
2018-07-08T14:46:04.689Z,101787.56
2018-07-08T14:48:37.648Z,101788.34
2018-07-08T14:51:12.362Z,101786.69
2018-07-08T14:53:48.083Z,101779.72
2018-07-08T14:56:26.939Z,101781.25
2018-07-08T15:04:27.452Z,101783.45
2018-07-08T15:09:46.790Z,101780.13
2018-07-08T15:12:26.053Z,101776.07
2018-07-08T15:15:05.729Z,101777.91
2018-07-08T15:23:05.425Z,101770.91
2018-07-08T15:28:30.215Z,101760.05
2018-07-08T15:31:09.804Z,101753.84
2018-07-08T15:33:49.033Z,101758.31
2018-07-08T15:36:21.981Z,101757.76
2018-07-08T15:39:00.480Z,101756.70
2018-07-08T15:41:39.756Z,101755.83
2018-07-08T15:44:17.756Z,101749.25
2018-07-08T15:49:29.369Z,101753.45
2018-07-08T15:52:10.328Z,101753.92
2018-07-08T15:54:42.464Z,101758.53
2018-07-08T15:57:15.409Z,101756.92
2018-07-08T15:59:49.158Z,101749.48
2018-07-08T16:02:32.296Z,101757.25
2018-07-08T16:05:07.410Z,101492.00
2018-07-08T16:07:45.945Z,101752.17
2018-07-08T16:10:26.454Z,101751.34
2018-07-08T16:13:04.409Z,101748.09
2018-07-08T16:18:25.400Z,101741.86
2018-07-08T16:21:02.420Z,101736.02
2018-07-08T16:23:36.397Z,101725.70
2018-07-08T16:26:15.721Z,101729.64
2018-07-08T16:31:49.267Z,101211.27
2018-07-08T16:34:40.228Z,101724.57
2018-07-08T16:37:23.342Z,101719.89
2018-07-08T16:40:08.466Z,101721.50
2018-07-08T16:45:32.685Z,101727.38
2018-07-08T16:50:57.010Z,101721.84
2018-07-08T16:53:36.091Z,101732.58
2018-07-08T16:56:08.886Z,101732.11
2018-07-08T16:58:47.335Z,101731.04
2018-07-08T17:06:33.226Z,101729.47
2018-07-08T17:11:51.544Z,101727.44
2018-07-08T17:14:24.096Z,101720.14
2018-07-08T17:16:59.062Z,101721.25
2018-07-08T17:19:37.784Z,101721.92
2018-07-08T17:24:56.951Z,101708.98
2018-07-08T17:27:29.048Z,101716.03
2018-07-08T18:06:40.418Z,101687.68
2018-07-08T18:09:16.181Z,101687.53
2018-07-08T18:11:53.886Z,101677.56
2018-07-08T18:19:59.919Z,101667.47
2018-07-08T18:22:36.543Z,101664.64
2018-07-08T18:25:17.692Z,101660.50
2018-07-08T18:33:23.122Z,101660.58
2018-07-08T18:36:10.642Z,101661.95
2018-07-08T18:44:31.567Z,101650.04
2018-07-08T18:47:09.840Z,101652.95
2018-07-08T18:57:58.298Z,101646.24
2018-07-08T19:00:37.717Z,101649.23
2018-07-08T19:05:55.724Z,101650.67
2018-07-08T19:14:29.490Z,101645.09
2018-07-08T19:17:07.532Z,101645.42
2018-07-08T19:25:34.615Z,101651.73
2018-07-08T19:31:00.213Z,101652.80
2018-07-08T19:33:38.261Z,101648.70
2018-07-08T19:47:29.573Z,101631.50
2018-07-08T19:50:06.387Z,101625.96
2018-07-08T19:52:44.020Z,101628.56
2018-07-08T19:55:21.205Z,101630.16
2018-07-08T20:06:25.022Z,101614.15
2018-07-08T20:22:52.860Z,101610.50
2018-07-08T20:28:11.153Z,101609.20
2018-07-08T20:30:47.314Z,101603.75
2018-07-08T20:33:21.260Z,101607.12
2018-07-08T20:38:43.003Z,101603.73
2018-07-08T20:41:14.640Z,101590.05
2018-07-08T20:43:44.490Z,101596.22
2018-07-08T20:46:15.703Z,101599.23
2018-07-08T20:48:58.982Z,101598.23
2018-07-08T20:51:32.503Z,101595.78
2018-07-08T20:54:14.573Z,101596.91
2018-07-08T20:59:37.154Z,101588.55
2018-07-08T21:02:12.056Z,101592.05
2018-07-08T21:04:42.056Z,101590.81
2018-07-08T21:07:19.996Z,101592.23
2018-07-08T21:09:53.557Z,101587.73
2018-07-08T21:12:30.986Z,101474.03
2018-07-08T21:15:03.817Z,101576.02
2018-07-08T21:17:45.668Z,101573.23
2018-07-08T21:23:09.562Z,101575.77
2018-07-08T21:25:41.835Z,101575.59
2018-07-08T21:28:20.812Z,101574.95
2018-07-08T21:33:37.910Z,101562.13
2018-07-08T21:36:12.259Z,101562.89
2018-07-08T21:38:42.735Z,101555.75
2018-07-08T21:41:17.126Z,101558.58
2018-07-08T21:43:52.854Z,101558.11
2018-07-08T21:46:24.970Z,101561.91
2018-07-08T21:48:54.891Z,101566.43
2018-07-08T21:51:24.952Z,101561.31
2018-07-08T21:53:55.088Z,101551.67
2018-07-08T21:56:36.109Z,101544.68
2018-07-08T21:59:08.965Z,101543.77
2018-07-08T22:02:05.931Z,101542.52
2018-07-08T22:04:38.270Z,101540.71
2018-07-08T22:07:27.240Z,101542.83
2018-07-08T22:10:02.027Z,101544.56
2018-07-08T22:12:37.913Z,101534.80
2018-07-08T22:15:16.602Z,101521.59
2018-07-08T22:17:48.161Z,101517.70
2018-07-08T22:20:18.272Z,101524.50
2018-07-08T22:22:50.242Z,101526.28
2018-07-08T22:25:20.055Z,101517.70
2018-07-08T22:27:55.372Z,101511.12
2018-07-08T22:30:26.870Z,101508.70
2018-07-08T22:32:56.733Z,101501.17
2018-07-08T22:35:27.189Z,101500.39
2018-07-08T22:37:58.369Z,101485.97
2018-07-08T22:40:32.936Z,101493.23
2018-07-08T22:45:52.020Z,101469.59
2018-07-08T22:48:29.966Z,101473.08
2018-07-08T22:51:03.066Z,101471.40
2018-07-08T22:53:34.169Z,101468.80
2018-07-08T23:01:40.432Z,101459.93
2018-07-08T23:09:50.250Z,101460.47
2018-07-08T23:12:34.371Z,101455.92
2018-07-08T23:15:19.063Z,101456.99
2018-07-08T23:17:53.701Z,101452.49
2018-07-08T23:28:26.556Z,101431.03
2018-07-08T23:30:59.476Z,101431.72
2018-07-08T23:33:33.378Z,101430.11
2018-07-08T23:36:14.702Z,101434.69
2018-07-08T23:38:49.632Z,101432.59
2018-07-08T23:41:24.131Z,101420.30
2018-07-08T23:43:58.510Z,101412.38
2018-07-08T23:46:33.010Z,101418.69
2018-07-08T23:49:02.862Z,101417.30
2018-07-08T23:51:32.252Z,101387.24
2018-07-08T23:54:01.417Z,101419.07
2018-07-08T23:56:31.003Z,101406.20
2018-07-08T23:59:00.476Z,101401.63
